createdAt,value
2024-01-15T00:05:30.932Z,1.80
2024-01-15T00:11:32.652Z,1.70
2024-01-15T00:17:34.483Z,1.80
2024-01-15T00:23:36.198Z,1.80
2024-01-15T00:29:37.921Z,1.80
2024-01-15T00:35:39.632Z,1.80
2024-01-15T00:41:41.337Z,1.80
2024-01-15T00:47:43.197Z,1.80
2024-01-15T00:53:44.950Z,1.80
2024-01-15T00:59:48.490Z,1.90
2024-01-15T01:05:51.080Z,1.90
2024-01-15T01:11:52.843Z,1.90
2024-01-15T01:17:54.653Z,1.90
2024-01-15T01:23:56.406Z,2.00
2024-01-15T01:29:58.180Z,2.00
2024-01-15T01:35:59.850Z,2.00
2024-01-15T01:42:01.652Z,2.00
2024-01-15T01:48:04.960Z,2.00
2024-01-15T01:54:09.158Z,2.00
2024-01-15T02:00:11.856Z,2.00
2024-01-15T02:06:14.324Z,1.80
2024-01-15T02:12:16.213Z,1.70
2024-01-15T02:18:18.188Z,1.70
2024-01-15T02:24:20.204Z,1.80
2024-01-15T02:30:23.532Z,1.80
2024-01-15T02:36:25.279Z,1.80
2024-01-15T02:42:27.894Z,1.80
2024-01-15T02:48:29.769Z,1.90
2024-01-15T02:54:31.577Z,1.90
2024-01-15T03:00:33.382Z,1.90
2024-01-15T03:06:35.126Z,1.90
2024-01-15T03:12:36.901Z,1.90
2024-01-15T03:18:38.823Z,1.90
2024-01-15T03:24:40.786Z,1.90
2024-01-15T03:30:42.626Z,1.90
2024-01-15T03:36:44.626Z,1.90
2024-01-15T03:42:46.472Z,1.90
2024-01-15T03:48:48.364Z,1.90
2024-01-15T03:54:50.117Z,2.00
2024-01-15T04:00:52.019Z,2.00
2024-01-15T04:06:53.898Z,2.00
2024-01-15T04:12:55.768Z,2.00
2024-01-15T04:18:57.530Z,2.00
2024-01-15T04:24:59.418Z,2.00
2024-01-15T04:31:01.222Z,2.00
2024-01-15T04:37:03.138Z,2.00
2024-01-15T04:43:04.987Z,2.00
2024-01-15T04:49:06.884Z,2.00
2024-01-15T04:55:08.925Z,2.00
2024-01-15T05:01:11.365Z,1.80
2024-01-15T05:07:13.186Z,1.80
2024-01-15T05:13:15.294Z,1.70
2024-01-15T05:19:17.507Z,1.80
2024-01-15T05:25:19.424Z,1.80
2024-01-15T05:31:21.393Z,1.80
2024-01-15T05:37:23.247Z,1.90
2024-01-15T05:43:24.973Z,1.90
2024-01-15T05:49:26.848Z,2.00
2024-01-15T05:55:28.632Z,1.90
2024-01-15T06:01:30.572Z,2.00
2024-01-15T06:07:32.643Z,2.00
2024-01-15T06:13:34.373Z,2.00
2024-01-15T06:19:36.124Z,2.00
2024-01-15T06:25:37.946Z,1.90
2024-01-15T06:31:39.849Z,1.90
2024-01-15T06:37:41.692Z,2.00
2024-01-15T06:43:43.397Z,2.00
2024-01-15T06:49:45.170Z,2.00
2024-01-15T06:55:47.096Z,2.00
2024-01-15T07:01:48.913Z,2.00
2024-01-15T07:07:50.783Z,2.00
2024-01-15T07:13:52.530Z,1.90
2024-01-15T07:19:54.400Z,1.90
2024-01-15T07:25:58.889Z,1.90
2024-01-15T07:32:00.680Z,1.90
2024-01-15T07:38:02.485Z,1.90
2024-01-15T07:44:04.782Z,2.00
2024-01-15T07:50:07.270Z,2.00
2024-01-15T07:56:09.280Z,2.00
2024-01-15T08:02:11.498Z,2.00
2024-01-15T08:08:13.588Z,2.00
2024-01-15T08:14:15.731Z,2.00
2024-01-15T08:20:17.630Z,2.00
2024-01-15T08:26:19.446Z,2.00
2024-01-15T08:32:21.188Z,2.00
2024-01-15T08:38:23.165Z,2.00
2024-01-15T08:44:24.969Z,2.00
2024-01-15T08:50:26.729Z,2.10
2024-01-15T08:56:28.566Z,2.10
2024-01-15T09:02:30.452Z,2.10
2024-01-15T09:08:32.232Z,2.10
2024-01-15T09:14:37.356Z,2.20
2024-01-15T09:20:39.728Z,2.40
2024-01-15T09:26:41.496Z,2.50
2024-01-15T09:32:43.450Z,2.60
2024-01-15T09:38:45.312Z,2.70
2024-01-15T09:44:48.055Z,2.80
2024-01-15T09:50:50.281Z,2.60
2024-01-15T09:56:52.144Z,2.50
2024-01-15T10:02:54.014Z,2.60
2024-01-15T10:08:59.234Z,2.60
2024-01-15T10:15:03.036Z,2.60
2024-01-15T10:21:05.287Z,2.60
2024-01-15T10:27:11.357Z,2.60
2024-01-15T10:33:13.406Z,2.70
2024-01-15T10:39:15.383Z,2.70
2024-01-15T10:45:17.715Z,2.60
2024-01-15T10:51:19.825Z,2.50
2024-01-15T10:57:23.637Z,2.40
2024-01-15T11:03:25.817Z,2.40
2024-01-15T11:09:27.629Z,2.30
2024-01-15T11:15:30.808Z,2.20
2024-01-15T11:21:32.819Z,2.20
2024-01-15T11:27:48.475Z,2.30
2024-01-15T11:33:51.738Z,2.40
2024-01-15T11:39:55.767Z,2.40
2024-01-15T11:45:57.949Z,2.30
2024-01-15T11:52:02.023Z,2.30
2024-01-15T11:58:10.927Z,2.30
2024-01-15T12:04:16.451Z,2.40
2024-01-15T12:10:21.311Z,2.60
2024-01-15T12:16:23.397Z,2.60
2024-01-15T12:22:25.498Z,2.60
2024-01-15T12:28:29.413Z,2.50
2024-01-15T12:34:32.251Z,2.50
2024-01-15T12:40:38.134Z,2.60
2024-01-15T12:46:40.109Z,2.40
2024-01-15T12:52:42.587Z,2.40
2024-01-15T12:58:44.362Z,2.40
2024-01-15T13:04:46.271Z,2.40
2024-01-15T13:10:48.042Z,2.30
2024-01-15T13:16:49.935Z,2.40
2024-01-15T13:22:51.659Z,2.40
2024-01-15T13:28:54.602Z,2.40
2024-01-15T13:34:59.328Z,2.40
2024-01-15T13:41:01.797Z,2.40
2024-01-15T13:47:03.755Z,2.40
2024-01-15T13:53:05.533Z,2.30
2024-01-15T13:59:07.344Z,2.30
2024-01-15T14:05:09.730Z,2.30
2024-01-15T14:11:11.489Z,2.20
2024-01-15T14:17:13.362Z,2.20
2024-01-15T14:23:15.176Z,2.20
2024-01-15T14:29:16.936Z,2.20
2024-01-15T14:35:18.640Z,2.20
2024-01-15T14:41:21.858Z,2.20
2024-01-15T14:47:25.550Z,2.20
2024-01-15T14:53:27.498Z,2.20
2024-01-15T14:59:30.804Z,2.20
2024-01-15T15:05:33.284Z,2.10
2024-01-15T15:11:35.124Z,2.10
2024-01-15T15:17:37.285Z,2.20
2024-01-15T15:23:41.903Z,2.10
2024-01-15T15:29:43.625Z,2.10
2024-01-15T15:35:45.601Z,2.00
2024-01-15T15:41:47.434Z,2.00
2024-01-15T15:47:49.392Z,1.80
2024-01-15T15:53:52.785Z,1.80
2024-01-15T15:59:58.420Z,1.80
2024-01-15T16:06:00.348Z,1.80
2024-01-15T16:12:02.176Z,1.90
2024-01-15T16:23:18.649Z,1.90
2024-01-15T16:24:34.050Z,1.90
2024-01-15T16:30:45.854Z,1.90
2024-01-15T16:36:49.804Z,2.00
2024-01-15T16:42:51.614Z,2.00
2024-01-15T16:48:53.431Z,2.00
2024-01-15T16:54:55.210Z,2.00
2024-01-15T17:00:57.135Z,1.90
2024-01-15T17:06:58.908Z,1.90
2024-01-15T17:13:03.465Z,1.90
2024-01-15T17:19:06.213Z,1.90
2024-01-15T17:25:08.293Z,1.80
2024-01-15T17:31:10.594Z,1.80
2024-01-15T17:37:12.316Z,1.90
2024-01-15T17:43:14.340Z,1.90
2024-01-15T17:49:16.354Z,1.90
2024-01-15T17:55:18.648Z,1.90
2024-01-15T18:01:20.670Z,1.90
2024-01-15T18:07:24.013Z,1.80
2024-01-15T18:13:25.896Z,1.80
2024-01-15T18:19:27.748Z,1.80
2024-01-15T18:25:29.491Z,1.70
2024-01-15T18:31:31.236Z,1.70
2024-01-15T18:37:33.416Z,1.70
2024-01-15T18:43:35.394Z,1.70
2024-01-15T18:49:37.832Z,1.70
2024-01-15T18:55:39.593Z,1.70
2024-01-15T19:01:41.414Z,1.60
2024-01-15T19:07:46.776Z,1.60
2024-01-15T19:13:48.529Z,1.50
2024-01-15T19:19:52.191Z,1.40
2024-01-15T19:25:54.471Z,1.50
2024-01-15T19:31:56.283Z,1.40
2024-01-15T19:37:58.456Z,1.30
2024-01-15T19:44:01.519Z,1.30
2024-01-15T19:50:03.450Z,1.50
2024-01-15T19:56:05.639Z,1.50
2024-01-15T20:02:08.133Z,1.60
2024-01-15T20:08:10.469Z,1.60
2024-01-15T20:14:12.487Z,1.60
2024-01-15T20:20:14.320Z,1.60
2024-01-15T20:26:16.642Z,1.60
2024-01-15T20:32:19.775Z,1.70
2024-01-15T20:38:21.679Z,1.60
2024-01-15T20:44:25.587Z,1.70
2024-01-15T20:50:27.584Z,1.60
2024-01-15T20:56:29.405Z,1.60
2024-01-15T21:02:31.358Z,1.60
2024-01-15T21:08:33.183Z,1.60
2024-01-15T21:14:37.056Z,1.60
2024-01-15T21:20:39.668Z,1.60
2024-01-15T21:26:41.461Z,1.60
2024-01-15T21:32:43.850Z,1.60
2024-01-15T21:38:45.731Z,1.70
2024-01-15T21:44:47.675Z,1.50
2024-01-15T21:50:49.659Z,1.30
2024-01-15T21:56:51.514Z,1.20
2024-01-15T22:02:53.594Z,1.30
2024-01-15T22:08:55.454Z,1.30
2024-01-15T22:14:57.787Z,1.40
2024-01-15T22:21:01.988Z,1.40
2024-01-15T22:27:05.719Z,1.50
2024-01-15T22:33:08.971Z,1.40
2024-01-15T22:39:10.910Z,1.50
2024-01-15T22:45:16.685Z,1.40
2024-01-15T22:51:19.245Z,1.50
2024-01-15T22:57:21.257Z,1.60
2024-01-15T23:03:23.057Z,1.60
2024-01-15T23:09:25.759Z,1.60
2024-01-15T23:15:29.469Z,1.60
2024-01-15T23:21:31.279Z,1.60
2024-01-15T23:27:33.047Z,1.60
2024-01-15T23:33:34.948Z,1.60
2024-01-15T23:39:36.817Z,1.60
2024-01-15T23:45:41.568Z,1.60
2024-01-15T23:51:43.298Z,1.60
2024-01-15T23:57:45.050Z,1.50
